Погода Барра-ду-Пираина неделю

Рио-де-Жанейро, Бразилия

23 - 29 июля
  • 23июля
    Сегодня
    +12°
    +23°
    Ясно и безоблачно
    ВремяПогодаТемператураВлажностьДавлениеВетер, м/сВероятность осадков
    00:00Практически безоблачно+14°C94 %768 мм1.0 м/с5 %
    03:00Облачно с прояснениями+13°C97 %768 мм0.4 м/с2 %
    06:00Небольшая облачность+13°C97 %768 мм0.9 м/с3 %
    09:00Небольшая облачность+15°C90 %770 мм0.7 м/с5 %
    12:00Ясно и безоблачно+23°C59 %769 мм1.9 м/с5 %
    15:00Ясно и безоблачно+22°C54 %768 мм3.0 м/с5 %
    18:00Ясно и безоблачно+17°C83 %768 мм1.6 м/с5 %
    21:00Ясно и безоблачно+15°C93 %769 мм0.6 м/с5 %
  • 24июля
    Среда
    +13°
    +25°
    Ясно и безоблачно
    ВремяПогодаТемператураВлажностьДавлениеВетер, м/сВероятность осадков
    00:00Практически безоблачно+13°C97 %770 мм0.9 м/с5 %
    03:00Облачно с прояснениями+13°C99 %769 мм0.9 м/с5 %
    06:00Облачно с прояснениями+13°C97 %769 мм1.4 м/с5 %
    09:00Ясно и безоблачно+16°C81 %770 мм1.7 м/с5 %
    12:00Ясно и безоблачно+23°C58 %769 мм2.6 м/с5 %
    15:00Ясно и безоблачно+24°C45 %767 мм2.5 м/с5 %
    18:00Ясно и безоблачно+19°C68 %768 мм1.9 м/с5 %
    21:00Ясно и безоблачно+17°C83 %768 мм0.9 м/с5 %
  • 25июля
    Четверг
    +14°
    +27°
    Ясно и безоблачно
    ВремяПогодаТемператураВлажностьДавлениеВетер, м/сВероятность осадков
    00:00Ясно и безоблачно+14°C84 %768 мм1.7 м/с5 %
    03:00Ясно и безоблачно+14°C78 %767 мм3.4 м/с5 %
    06:00Ясно и безоблачно+14°C90 %767 мм3.7 м/с5 %
    09:00Практически безоблачно+17°C80 %768 мм4.6 м/с5 %
    12:00Ясно и безоблачно+24°C55 %766 мм3.7 м/с5 %
    15:00Ясно и безоблачно+26°C45 %764 мм1.5 м/с5 %
    18:00Ясно и безоблачно+21°C64 %765 мм2.8 м/с5 %
    21:00Ясно и безоблачно+19°C67 %765 мм2.6 м/с5 %
  • 26июля
    Пятница
    +14°
    +28°
    Небольшая облачность
    ВремяПогодаТемператураВлажностьДавлениеВетер, м/сВероятность осадков
    00:00Ясно и безоблачно+17°C72 %765 мм2.5 м/с5 %
    03:00Ясно и безоблачно+16°C77 %764 мм2.2 м/с5 %
    06:00Ясно и безоблачно+15°C80 %765 мм2.3 м/с5 %
    09:00Ясно и безоблачно+20°C62 %766 мм2.2 м/с5 %
    12:00Ясно и безоблачно+27°C43 %765 мм1.7 м/с5 %
    15:00Небольшая облачность+28°C37 %763 мм1.0 м/с5 %
    18:00Небольшая облачность+21°C60 %764 мм2.2 м/с5 %
    21:00Облачно с прояснениями+19°C75 %766 мм1.3 м/с5 %
  • 27июля
    Суббота
    +16°
    +28°
    Облачно с прояснениями
    ВремяПогодаТемператураВлажностьДавлениеВетер, м/сВероятность осадков
    00:00Облачно с прояснениями+18°C73 %766 мм0.3 м/с5 %
    03:00Облачно с прояснениями+16°C84 %765 мм1.1 м/с5 %
    06:00Облачно с прояснениями+15°C86 %765 мм1.4 м/с5 %
    09:00Небольшая облачность+21°C62 %766 мм1.4 м/с5 %
    12:00Облачно с прояснениями+27°C41 %765 мм2.6 м/с5 %
    15:00Облачно с прояснениями+28°C37 %764 мм2.6 м/с5 %
    18:00Небольшая облачность+22°C56 %765 мм2.3 м/с5 %
    21:00Практически безоблачно+18°C74 %766 мм1.2 м/с5 %
Мы используем cookies
Соглашаюсь